Time;durP1;ratioP1;P1;durP2;ratioP2;P2;SDS_P1;SDS_P2;PMS_P1;PMS_P2;Temp;Humidity;BMP_temperature;BMP_pressure;BME280_temperature;BME280_humidity;BME280_pressure;Samples;Min_cycle;Max_cycle;Signal;HPM_P1;HPM_P2
2021/04/30 00:00:57;;;;;;;34.00;18.48;;;8.10;92.70;;;;;;5076780;28;20582;-77
2021/04/30 00:03:23;;;;;;;35.38;19.08;;;8.10;92.60;;;;;;5095022;28;20070;-76
2021/04/30 00:05:49;;;;;;;37.40;18.80;;;8.10;92.30;;;;;;5076644;28;20039;-75
2021/04/30 00:08:15;;;;;;;32.10;18.38;;;8.10;92.50;;;;;;5095200;28;20028;-75
2021/04/30 00:10:41;;;;;;;36.30;17.60;;;8.10;92.60;;;;;;5094597;28;20020;-76
2021/04/30 00:13:07;;;;;;;32.42;17.20;;;8.20;92.70;;;;;;5076758;28;20122;-76
2021/04/30 00:15:33;;;;;;;38.97;18.73;;;8.20;92.30;;;;;;5076745;28;20471;-77
2021/04/30 00:18:04;;;;;;;37.90;19.42;;;8.20;92.20;;;;;;5076730;28;20464;-77
2021/04/30 00:20:31;;;;;;;40.30;19.23;;;8.20;92.80;;;;;;5076642;28;20482;-77
2021/04/30 00:22:57;;;;;;;31.17;15.55;;;8.20;92.40;;;;;;5076646;28;20463;-76
2021/04/30 00:25:22;;;;;;;32.70;17.73;;;8.20;92.50;;;;;;5095309;28;20024;-77
2021/04/30 00:27:48;;;;;;;39.30;19.00;;;8.20;92.60;;;;;;5072173;28;20476;-78
2021/04/30 00:30:14;;;;;;;32.88;16.98;;;8.20;92.70;;;;;;5074414;28;20020;-77
2021/04/30 00:32:40;;;;;;;38.95;18.13;;;8.20;92.70;;;;;;5072835;28;20031;-77
2021/04/30 00:35:07;;;;;;;35.38;19.38;;;8.20;92.60;;;;;;5074003;28;20017;-78
2021/04/30 00:37:33;;;;;;;37.30;18.15;;;8.20;92.70;;;;;;5072316;28;20410;-77
2021/04/30 00:39:59;;;;;;;36.78;19.10;;;8.30;92.70;;;;;;5072802;28;20040;-77
2021/04/30 00:42:25;;;;;;;38.10;18.70;;;8.20;92.70;;;;;;5072812;28;20074;-77
2021/04/30 00:44:50;;;;;;;30.08;17.27;;;8.20;92.60;;;;;;5072618;28;20453;-76
2021/04/30 00:47:27;;;;;;;33.45;17.90;;;8.20;92.60;;;;;;5072762;28;20025;-75
2021/04/30 00:49:53;;;;;;;37.63;18.85;;;8.20;92.70;;;;;;5072817;28;20412;-75
2021/04/30 00:52:19;;;;;;;40.58;18.02;;;8.20;92.80;;;;;;5074455;28;20021;-76
2021/04/30 00:54:44;;;;;;;39.33;19.17;;;8.20;92.80;;;;;;5072861;28;20009;-76
2021/04/30 00:57:11;;;;;;;39.28;18.70;;;8.30;92.90;;;;;;5073029;28;20357;-77
2021/04/30 00:59:39;;;;;;;37.38;18.60;;;8.30;92.90;;;;;;5073429;28;20031;-76
2021/04/30 01:02:05;;;;;;;38.92;18.02;;;8.30;92.80;;;;;;5072351;28;20122;-77
2021/04/30 01:04:30;;;;;;;33.47;18.67;;;8.30;92.70;;;;;;5072120;28;20060;-76
2021/04/30 01:06:56;;;;;;;36.33;19.73;;;8.30;92.70;;;;;;5073379;28;20103;-76
2021/04/30 01:09:22;;;;;;;42.20;19.20;;;8.30;92.80;;;;;;5072201;28;20024;-77
2021/04/30 01:11:48;;;;;;;43.25;19.88;;;8.40;92.80;;;;;;5071979;28;20103;-76
2021/04/30 01:14:14;;;;;;;38.33;19.35;;;8.40;92.70;;;;;;5073175;28;20020;-76
2021/04/30 01:16:40;;;;;;;43.22;19.77;;;8.40;93.00;;;;;;5073195;28;20103;-77
2021/04/30 01:19:05;;;;;;;39.88;20.80;;;8.40;92.70;;;;;;5072169;28;20020;-77
2021/04/30 01:21:31;;;;;;;35.70;19.30;;;8.40;92.70;;;;;;5072132;28;20238;-77
2021/04/30 01:23:57;;;;;;;46.47;21.45;;;8.40;92.60;;;;;;5071520;28;20028;-77
2021/04/30 01:26:22;;;;;;;37.88;20.23;;;8.50;92.70;;;;;;5071772;28;20023;-77
2021/04/30 01:28:49;;;;;;;33.15;19.88;;;8.50;92.70;;;;;;5071454;28;20083;-77
2021/04/30 01:31:15;;;;;;;38.92;20.85;;;8.50;92.70;;;;;;5073224;28;20024;-77
2021/04/30 01:33:41;;;;;;;41.80;21.45;;;8.50;92.50;;;;;;5071619;28;20021;-77
2021/04/30 01:36:08;;;;;;;45.00;23.30;;;8.50;92.50;;;;;;5071811;28;20094;-76
2021/04/30 01:38:33;;;;;;;45.97;22.90;;;8.50;92.50;;;;;;5071403;28;20016;-78
2021/04/30 01:40:59;;;;;;;39.75;21.52;;;8.50;92.50;;;;;;5071246;28;20194;-77
2021/04/30 01:43:25;;;;;;;46.50;21.20;;;8.50;92.50;;;;;;5071366;28;20052;-78
2021/04/30 01:45:54;;;;;;;44.17;21.20;;;8.60;92.50;;;;;;5071347;28;20021;-77
2021/04/30 01:48:24;;;;;;;44.20;21.83;;;8.60;92.40;;;;;;5071148;28;20456;-78
2021/04/30 01:50:50;;;;;;;;;;;8.60;92.50;;;;;;5072864;28;20033;-77
2021/04/30 01:53:25;;;;;;;45.67;23.20;;;8.60;92.30;;;;;;5072953;28;19907;-78
2021/04/30 01:55:52;;;;;;;63.10;23.20;;;8.60;92.30;;;;;;5071428;28;20013;-77
2021/04/30 01:58:19;;;;;;;47.97;23.77;;;8.50;92.40;;;;;;5073206;28;20021;-77
2021/04/30 02:00:45;;;;;;;79.82;34.75;;;8.50;92.40;;;;;;5071465;28;20020;-76
2021/04/30 02:03:11;;;;;;;63.90;29.48;;;8.50;92.50;;;;;;5072935;28;20489;-77
2021/04/30 02:05:39;;;;;;;51.38;26.08;;;8.60;92.60;;;;;;5072314;28;20107;-76
2021/04/30 02:08:07;;;;;;;44.05;24.58;;;8.60;92.80;;;;;;5072099;28;20028;-76
2021/04/30 02:10:33;;;;;;;53.22;25.70;;;8.60;92.50;;;;;;5073885;28;20032;-76
2021/04/30 02:13:00;;;;;;;52.70;25.02;;;8.60;92.50;;;;;;5073824;28;20097;-76
2021/04/30 02:15:28;;;;;;;50.17;22.60;;;8.60;92.50;;;;;;5071554;28;20086;-78
2021/04/30 02:17:54;;;;;;;58.60;27.05;;;8.60;92.40;;;;;;5070970;28;20024;-78
2021/04/30 02:20:22;;;;;;;55.78;26.45;;;8.60;92.50;;;;;;5072754;28;20020;-77
2021/04/30 02:22:48;;;;;;;58.00;24.67;;;8.60;92.50;;;;;;5072271;28;20017;-77
2021/04/30 02:25:15;;;;;;;42.70;21.85;;;8.60;92.40;;;;;;5071082;28;20040;-77
2021/04/30 02:27:42;;;;;;;51.65;23.70;;;8.60;92.40;;;;;;5082319;28;20118;-78
2021/04/30 02:30:10;;;;;;;54.63;22.80;;;8.60;92.50;;;;;;5074135;28;20456;-77
2021/04/30 02:32:37;;;;;;;53.08;24.70;;;8.60;92.50;;;;;;5074389;28;20065;-76
2021/04/30 02:35:08;;;;;;;52.38;22.80;;;8.60;92.50;;;;;;5092218;28;20016;-77
2021/04/30 02:37:34;;;;;;;49.15;24.33;;;8.60;92.50;;;;;;5074088;28;20107;-77
2021/04/30 02:40:00;;;;;;;55.40;24.23;;;8.70;92.60;;;;;;5074025;28;20116;-77
2021/04/30 02:42:25;;;;;;;53.17;25.20;;;8.70;92.50;;;;;;5092511;28;20031;-77
2021/04/30 02:44:51;;;;;;;50.20;25.38;;;8.70;92.50;;;;;;5074113;28;20031;-77
2021/04/30 02:47:17;;;;;;;54.88;25.95;;;8.70;92.50;;;;;;5092303;28;20072;-76
2021/04/30 02:49:47;;;;;;;56.60;23.20;;;8.70;92.60;;;;;;5092552;28;20016;-77
2021/04/30 02:52:17;;;;;;;57.83;25.67;;;8.60;92.50;;;;;;5074860;28;20423;-76
2021/04/30 02:54:43;;;;;;;48.63;24.25;;;8.60;92.50;;;;;;5074281;28;20028;-77
2021/04/30 02:57:09;;;;;;;51.67;21.38;;;8.60;92.50;;;;;;5073591;28;20055;-78
2021/04/30 02:59:35;;;;;;;40.08;22.17;;;8.60;92.60;;;;;;5092887;28;20017;-77
2021/04/30 03:02:02;;;;;;;40.22;22.65;;;8.60;92.60;;;;;;5096334;28;20357;-78
2021/04/30 03:04:28;;;;;;;57.42;24.15;;;8.60;92.50;;;;;;5096233;28;20430;-78
2021/04/30 03:06:54;;;;;;;46.95;22.60;;;8.60;92.50;;;;;;5077779;28;20028;-77
2021/04/30 03:09:19;;;;;;;55.47;24.63;;;8.70;92.50;;;;;;5096255;28;20028;-76
2021/04/30 03:11:45;;;;;;;59.10;25.77;;;8.70;92.40;;;;;;5078045;28;20016;-77
2021/04/30 03:14:11;;;;;;;61.10;26.17;;;8.70;92.40;;;;;;5078069;28;20050;-77
2021/04/30 03:16:37;;;;;;;49.45;24.65;;;8.70;92.40;;;;;;5079796;28;20345;-76
2021/04/30 03:19:03;;;;;;;48.10;24.17;;;8.70;92.30;;;;;;5081629;28;20016;-77
2021/04/30 03:21:28;;;;;;;62.35;28.80;;;8.70;92.20;;;;;;5078497;28;20035;-78
2021/04/30 03:23:54;;;;;;;57.97;27.63;;;8.70;92.40;;;;;;5096374;28;20432;-77
2021/04/30 03:26:20;;;;;;;55.20;26.35;;;8.70;92.40;;;;;;5097554;28;20096;-76
2021/04/30 03:28:45;;;;;;;51.20;27.23;;;8.70;92.40;;;;;;5078591;28;20375;-77
2021/04/30 03:31:11;;;;;;;62.78;28.45;;;8.70;92.30;;;;;;5097567;28;20016;-77
2021/04/30 03:33:38;;;;;;;46.65;22.70;;;8.80;92.40;;;;;;5077848;28;20114;-78
2021/04/30 03:36:05;;;;;;;51.55;23.88;;;8.80;92.40;;;;;;5077253;28;20020;-77
2021/04/30 03:38:31;;;;;;;49.10;24.50;;;8.80;92.30;;;;;;5095406;28;20360;-76
2021/04/30 03:40:57;;;;;;;44.20;24.25;;;8.80;92.40;;;;;;5077276;28;20448;-77
2021/04/30 03:43:22;;;;;;;55.05;24.35;;;8.80;92.40;;;;;;5095265;28;20161;-78
2021/04/30 03:45:50;;;;;;;50.80;25.27;;;8.80;92.40;;;;;;5095094;28;20016;-78
2021/04/30 03:48:20;;;;;;;46.85;25.10;;;8.80;92.30;;;;;;5095577;28;20081;-78
2021/04/30 03:50:46;;;;;;;49.22;22.98;;;8.80;92.20;;;;;;5077215;28;20008;-76
2021/04/30 03:53:12;;;;;;;38.33;22.45;;;8.80;92.30;;;;;;5076891;28;20042;-77
2021/04/30 03:55:38;;;;;;;44.88;23.70;;;8.80;92.70;;;;;;5077105;28;20372;-78
2021/04/30 03:58:04;;;;;;;50.90;24.60;;;8.80;92.30;;;;;;5077092;28;20076;-78
2021/04/30 04:00:29;;;;;;;48.72;25.77;;;8.80;92.30;;;;;;5095680;28;20074;-76
2021/04/30 04:02:55;;;;;;;54.65;27.10;;;8.80;92.30;;;;;;5077365;28;20127;-78
2021/04/30 04:05:20;;;;;;;52.25;25.13;;;8.80;92.30;;;;;;5077204;28;20016;-77
2021/04/30 04:07:46;;;;;;;49.33;25.98;;;8.80;92.20;;;;;;5076860;28;20074;-77
2021/04/30 04:10:13;;;;;;;53.50;25.67;;;8.80;92.10;;;;;;5094545;28;20020;-78
2021/04/30 04:12:40;;;;;;;52.17;25.05;;;8.80;92.20;;;;;;5075697;28;20019;-77
2021/04/30 04:15:06;;;;;;;52.55;26.77;;;8.80;92.40;;;;;;5076466;28;20027;-78
2021/04/30 04:17:31;;;;;;;54.25;27.40;;;8.80;92.20;;;;;;5076653;28;20055;-77
2021/04/30 04:19:57;;;;;;;47.22;25.95;;;8.80;92.20;;;;;;5076462;28;20051;-77
2021/04/30 04:22:23;;;;;;;56.90;28.10;;;8.80;92.20;;;;;;5076669;28;20406;-77
2021/04/30 04:24:48;;;;;;;56.92;29.30;;;8.80;92.20;;;;;;5094881;28;20016;-77
2021/04/30 04:27:14;;;;;;;59.72;28.08;;;8.80;92.30;;;;;;5094188;28;20040;-77
2021/04/30 04:29:40;;;;;;;50.08;26.48;;;8.80;92.10;;;;;;5076627;28;20012;-78
2021/04/30 04:32:06;;;;;;;51.30;26.38;;;8.80;92.10;;;;;;5094134;28;20017;-77
2021/04/30 04:34:32;;;;;;;54.17;27.75;;;8.80;92.00;;;;;;5076350;28;20016;-78
2021/04/30 04:36:57;;;;;;;50.35;26.45;;;8.80;92.00;;;;;;5076088;28;20031;-78
2021/04/30 04:39:25;;;;;;;50.65;25.02;;;8.80;92.10;;;;;;5076470;28;20020;-78
2021/04/30 04:41:51;;;;;;;55.75;26.83;;;8.80;92.00;;;;;;5094661;28;20012;-77
2021/04/30 04:44:17;;;;;;;57.83;25.23;;;8.90;92.00;;;;;;5094647;28;20078;-75
2021/04/30 04:46:43;;;;;;;52.20;27.38;;;8.90;92.30;;;;;;5076765;28;20453;-77
2021/04/30 04:49:09;;;;;;;48.38;26.80;;;8.90;92.00;;;;;;5076499;28;20036;-76
2021/04/30 04:51:34;;;;;;;48.17;25.00;;;8.90;91.90;;;;;;5076344;28;20032;-77
2021/04/30 04:54:01;;;;;;;57.22;25.65;;;8.90;91.90;;;;;;5075391;28;20364;-78
2021/04/30 04:56:27;;;;;;;50.60;25.13;;;8.90;91.90;;;;;;5076471;28;20019;-78
2021/04/30 04:58:54;;;;;;;48.45;24.55;;;9.00;91.90;;;;;;5094103;28;20020;-76
2021/04/30 05:01:20;;;;;;;57.33;26.90;;;9.00;91.90;;;;;;5075715;28;20174;-77
2021/04/30 05:03:46;;;;;;;52.30;25.83;;;9.00;92.10;;;;;;5094351;28;20057;-78
2021/04/30 05:06:12;;;;;;;53.33;28.20;;;9.00;91.80;;;;;;5075470;28;20210;-77
2021/04/30 05:08:38;;;;;;;55.08;27.95;;;9.00;91.70;;;;;;5093938;28;20028;-77
2021/04/30 05:11:04;;;;;;;56.95;27.58;;;9.00;91.70;;;;;;5094185;28;20024;-77
2021/04/30 05:13:32;;;;;;;60.75;27.60;;;9.00;91.80;;;;;;5075644;28;20024;-78
2021/04/30 05:15:58;;;;;;;56.53;26.67;;;9.00;91.80;;;;;;5093865;28;20107;-76
2021/04/30 05:18:24;;;;;;;56.97;28.48;;;9.00;91.90;;;;;;5077271;28;20480;-77
2021/04/30 05:20:50;;;;;;;55.38;29.98;;;9.10;91.90;;;;;;5058641;28;20124;-79
2021/04/30 05:23:16;;;;;;;49.42;25.48;;;9.10;91.80;;;;;;5093375;28;20069;-78
2021/04/30 05:25:42;;;;;;;56.58;28.65;;;9.10;91.70;;;;;;5075533;28;20052;-77
2021/04/30 05:28:08;;;;;;;61.47;29.92;;;9.10;91.60;;;;;;5074556;28;20032;-77
2021/04/30 05:30:33;;;;;;;49.28;26.88;;;9.20;91.60;;;;;;5075371;28;20114;-78
2021/04/30 05:32:59;;;;;;;53.17;28.88;;;9.20;91.60;;;;;;5075076;28;20456;-77
2021/04/30 05:35:25;;;;;;;56.78;29.27;;;9.10;91.60;;;;;;5093418;28;20038;-77
2021/04/30 05:37:51;;;;;;;54.20;28.95;;;9.20;91.50;;;;;;5069785;28;20127;-78
2021/04/30 05:40:16;;;;;;;54.88;29.65;;;9.20;91.40;;;;;;5074863;28;20024;-78
2021/04/30 05:42:42;;;;;;;50.35;28.15;;;9.20;91.30;;;;;;5074889;28;20077;-79
2021/04/30 05:45:10;;;;;;;54.05;29.02;;;9.20;91.30;;;;;;5074680;28;20111;-78
2021/04/30 05:47:36;;;;;;;52.00;29.50;;;9.20;91.40;;;;;;5092988;28;20467;-78
2021/04/30 05:50:02;;;;;;;57.60;29.60;;;9.20;91.50;;;;;;5074565;28;20056;-78
2021/04/30 05:52:28;;;;;;;51.58;27.67;;;9.20;91.50;;;;;;5074710;28;20468;-78
2021/04/30 05:54:53;;;;;;;56.88;26.73;;;9.30;91.50;;;;;;5074893;28;20020;-77
2021/04/30 05:57:19;;;;;;;52.53;27.55;;;9.30;91.40;;;;;;5092602;28;20028;-78
2021/04/30 05:59:44;;;;;;;55.03;27.90;;;9.40;91.30;;;;;;5074659;28;20049;-78
2021/04/30 06:02:10;;;;;;;52.20;28.45;;;9.40;91.20;;;;;;5074333;28;20032;-78
2021/04/30 06:04:35;;;;;;;53.22;28.23;;;9.40;91.20;;;;;;5092617;28;20132;-78
2021/04/30 06:07:01;;;;;;;54.55;28.42;;;9.40;91.20;;;;;;5092383;28;20020;-77
2021/04/30 06:09:26;;;;;;;47.22;26.80;;;9.50;91.20;;;;;;5088287;28;20028;-78
2021/04/30 06:11:56;;;;;;;53.97;28.67;;;9.50;91.00;;;;;;5082036;28;20027;-77
2021/04/30 06:14:26;;;;;;;51.33;28.10;;;9.50;90.80;;;;;;5062959;28;20020;-78
2021/04/30 06:16:51;;;;;;;54.00;27.50;;;9.50;90.70;;;;;;5061131;28;20263;-77
2021/04/30 06:19:17;;;;;;;54.35;29.92;;;9.50;90.70;;;;;;5064733;28;20012;-78
2021/04/30 06:21:42;;;;;;;52.38;29.60;;;9.60;90.80;;;;;;5081852;28;20023;-79
2021/04/30 06:24:08;;;;;;;66.72;30.15;;;9.50;90.80;;;;;;5062257;28;20043;-78
2021/04/30 06:26:34;;;;;;;55.15;28.88;;;9.60;90.80;;;;;;5082476;28;20027;-79
2021/04/30 06:29:00;;;;;;;49.45;28.10;;;9.60;90.70;;;;;;5077472;28;20789;-76
2021/04/30 06:31:25;;;;;;;44.20;27.45;;;9.70;90.60;;;;;;5061060;28;20016;-78
2021/04/30 06:33:51;;;;;;;57.15;29.25;;;9.70;90.60;;;;;;5060755;28;20020;-78
2021/04/30 06:36:17;;;;;;;51.90;28.90;;;9.60;90.60;;;;;;5062054;28;20127;-78
2021/04/30 06:38:42;;;;;;;48.25;28.38;;;9.70;90.70;;;;;;5059616;28;20032;-77
2021/04/30 06:41:08;;;;;;;45.97;27.20;;;9.70;90.70;;;;;;5054521;28;20021;-77
2021/04/30 06:43:34;;;;;;;44.95;27.50;;;9.70;90.70;;;;;;5072722;28;20016;-78
2021/04/30 06:45:59;;;;;;;50.40;29.45;;;9.80;90.50;;;;;;5072096;28;20025;-77
2021/04/30 06:48:25;;;;;;;46.45;27.35;;;9.80;90.60;;;;;;5072261;28;20107;-78
2021/04/30 06:50:51;;;;;;;48.47;28.58;;;9.80;90.80;;;;;;5054013;28;20021;-79
2021/04/30 06:53:17;;;;;;;48.60;29.70;;;9.80;90.50;;;;;;5053703;28;20016;-79
2021/04/30 06:55:43;;;;;;;54.35;27.27;;;9.90;90.50;;;;;;5053986;28;20023;-79
2021/04/30 06:58:08;;;;;;;52.38;31.30;;;10.00;90.00;;;;;;5053780;28;20021;-78
2021/04/30 07:00:34;;;;;;;41.83;26.50;;;10.00;90.10;;;;;;5053909;28;20017;-77
2021/04/30 07:02:59;;;;;;;47.03;28.00;;;10.00;89.80;;;;;;5053676;28;20381;-78
2021/04/30 07:05:25;;;;;;;47.53;29.02;;;9.90;89.70;;;;;;5071859;28;20020;-80
2021/04/30 07:07:50;;;;;;;46.08;28.38;;;10.00;89.20;;;;;;5053897;28;20021;-79
2021/04/30 07:10:17;;;;;;;50.03;28.95;;;10.10;89.80;;;;;;5053575;28;20016;-79
2021/04/30 07:12:42;;;;;;;46.67;28.30;;;10.10;90.00;;;;;;5053333;28;20017;-79
2021/04/30 07:15:09;;;;;;;50.95;29.40;;;10.30;90.00;;;;;;5052877;28;20476;-79
2021/04/30 07:17:35;;;;;;;45.45;29.92;;;10.40;89.80;;;;;;5053374;28;20107;-78
2021/04/30 07:20:01;;;;;;;54.75;31.13;;;10.60;89.60;;;;;;5071552;28;20027;-79
2021/04/30 07:22:27;;;;;;;47.90;27.98;;;10.60;89.60;;;;;;5053594;28;20016;-79
2021/04/30 07:24:52;;;;;;;41.17;27.52;;;10.60;88.50;;;;;;5071558;28;20108;-80
2021/04/30 07:27:18;;;;;;;41.90;28.67;;;10.70;87.60;;;;;;5052809;28;20430;-78
2021/04/30 07:29:45;;;;;;;45.42;29.35;;;10.70;86.60;;;;;;5053249;28;20016;-79
2021/04/30 07:32:10;;;;;;;40.42;27.52;;;10.60;86.00;;;;;;5053059;28;20076;-82
2021/04/30 07:34:37;;;;;;;43.53;26.15;;;10.60;86.70;;;;;;5053228;28;20158;-82
2021/04/30 07:37:05;;;;;;;53.92;28.75;;;10.70;86.80;;;;;;5059837;28;20016;-80
2021/04/30 07:39:34;;;;;;;46.55;27.23;;;10.80;86.10;;;;;;5092093;28;20024;-80
2021/04/30 07:42:00;;;;;;;40.22;26.85;;;10.80;85.90;;;;;;5073282;28;20030;-79
2021/04/30 07:44:26;;;;;;;56.15;29.35;;;10.80;85.20;;;;;;5073568;28;20353;-80
2021/04/30 07:46:51;;;;;;;45.85;26.83;;;10.90;85.70;;;;;;5092656;28;20093;-80
2021/04/30 07:49:17;;;;;;;45.17;28.33;;;11.00;84.50;;;;;;5076674;28;20016;-80
2021/04/30 07:51:43;;;;;;;37.47;25.90;;;10.90;84.00;;;;;;5077062;28;20055;-78
2021/04/30 07:54:08;;;;;;;40.95;26.02;;;10.90;85.00;;;;;;5076983;28;20016;-80
2021/04/30 07:56:34;;;;;;;42.90;25.73;;;10.80;84.80;;;;;;5076830;28;20476;-81
2021/04/30 07:59:00;;;;;;;38.97;24.55;;;10.80;85.50;;;;;;5076720;28;20368;-80
2021/04/30 08:01:25;;;;;;;45.75;25.30;;;10.80;85.80;;;;;;5076825;28;20077;-79
2021/04/30 08:03:51;;;;;;;48.70;26.58;;;10.70;86.40;;;;;;5076773;28;20024;-79
2021/04/30 08:06:17;;;;;;;45.80;26.17;;;10.80;87.10;;;;;;5076643;28;20107;-83
2021/04/30 08:08:45;;;;;;;42.55;25.40;;;10.90;85.60;;;;;;5076754;28;20028;-80
2021/04/30 08:11:11;;;;;;;36.58;24.80;;;10.90;85.90;;;;;;5076263;28;20034;-79
2021/04/30 08:13:36;;;;;;;39.10;25.52;;;10.90;85.50;;;;;;5094643;28;20461;-78
2021/04/30 08:16:03;;;;;;;37.85;25.40;;;10.90;85.70;;;;;;5094580;28;20124;-78
2021/04/30 08:18:29;;;;;;;41.97;24.92;;;10.90;85.90;;;;;;5076555;28;20028;-78
2021/04/30 08:20:55;;;;;;;39.15;24.40;;;11.00;85.20;;;;;;5076585;28;20027;-78
2021/04/30 08:23:20;;;;;;;37.38;26.15;;;11.10;85.50;;;;;;5075838;28;20047;-78
2021/04/30 08:25:46;;;;;;;39.92;25.27;;;11.20;84.10;;;;;;5076244;28;20093;-79
2021/04/30 08:28:15;;;;;;;38.22;25.98;;;11.30;83.50;;;;;;5075828;28;20043;-78
2021/04/30 08:30:40;;;;;;;36.70;23.85;;;11.40;82.60;;;;;;5076104;28;20012;-79
2021/04/30 08:33:06;;;;;;;38.25;26.50;;;11.60;82.10;;;;;;5076762;28;20111;-79
2021/04/30 08:35:32;;;;;;;37.25;23.83;;;11.70;81.20;;;;;;5078050;28;20023;-81
2021/04/30 08:37:59;;;;;;;35.63;24.00;;;11.80;80.10;;;;;;5081315;28;20050;-78
2021/04/30 08:40:25;;;;;;;31.40;20.75;;;11.80;80.50;;;;;;5080227;28;20020;-80
2021/04/30 08:42:51;;;;;;;38.30;22.33;;;11.70;79.00;;;;;;5085508;28;20074;-79
2021/04/30 08:45:17;;;;;;;38.55;25.02;;;11.70;79.50;;;;;;5080181;28;20020;-81
2021/04/30 08:47:44;;;;;;;36.33;25.13;;;11.60;79.90;;;;;;5076319;28;20056;-81
2021/04/30 08:50:11;;;;;;;35.35;24.75;;;11.60;80.20;;;;;;5075969;28;20043;-80
2021/04/30 08:52:40;;;;;;;31.20;23.63;;;11.80;80.20;;;;;;5076020;28;20119;-79
2021/04/30 08:55:11;;;;;;;42.08;26.42;;;11.90;78.50;;;;;;5093943;28;20126;-81
2021/04/30 08:57:37;;;;;;;33.58;22.83;;;11.90;77.40;;;;;;5093842;28;20456;-80
2021/04/30 09:00:05;;;;;;;37.15;24.10;;;12.00;77.20;;;;;;5075535;28;20103;-80
2021/04/30 09:02:33;;;;;;;27.73;20.95;;;12.00;77.10;;;;;;5075205;28;20012;-80
2021/04/30 09:04:59;;;;;;;32.20;23.58;;;12.10;77.60;;;;;;5075986;28;20019;-81
2021/04/30 09:07:25;;;;;;;26.17;19.95;;;12.20;76.50;;;;;;5075765;28;20024;-80
2021/04/30 09:10:05;;;;;;;32.83;23.70;;;12.20;76.40;;;;;;5075636;28;20016;-79
2021/04/30 09:12:31;;;;;;;36.78;25.45;;;12.40;75.90;;;;;;5068636;28;20480;-79
2021/04/30 09:15:00;;;;;;;38.42;25.08;;;12.60;74.70;;;;;;5075278;28;20079;-79
2021/04/30 09:17:29;;;;;;;34.22;24.77;;;12.70;73.80;;;;;;5093635;28;20453;-79
2021/04/30 09:20:02;;;;;;;35.25;22.88;;;12.80;73.70;;;;;;5075502;28;20023;-79
2021/04/30 09:22:34;;;;;;;31.98;24.98;;;12.70;72.80;;;;;;5075378;28;20020;-79
2021/04/30 09:25:04;;;;;;;36.08;24.63;;;12.60;72.00;;;;;;5075403;28;20099;-77
2021/04/30 09:27:41;;;;;;;39.38;25.65;;;12.50;72.50;;;;;;5075192;28;20044;-78
2021/04/30 09:30:29;;;;;;;37.42;25.08;;;12.40;73.10;;;;;;5093479;28;20058;-78
2021/04/30 09:33:14;;;;;;;33.90;25.15;;;12.40;74.00;;;;;;5093741;28;20015;-77
2021/04/30 09:35:40;;;;;;;20.98;15.18;;;12.40;73.10;;;;;;5075279;28;20016;-77
2021/04/30 09:38:19;;;;;;;31.27;23.33;;;12.40;75.70;;;;;;5074919;28;20482;-78
2021/04/30 09:40:45;;;;;;;31.90;21.65;;;12.40;76.20;;;;;;5094434;28;20056;-77
2021/04/30 09:43:13;;;;;;;28.70;21.63;;;12.40;76.30;;;;;;5075724;28;20074;-78
2021/04/30 09:45:39;;;;;;;39.00;25.95;;;12.40;75.90;;;;;;5094438;28;20020;-77
2021/04/30 09:48:06;;;;;;;34.60;23.52;;;12.20;76.10;;;;;;5074911;28;20077;-76
2021/04/30 09:50:33;;;;;;;29.92;19.27;;;12.20;75.80;;;;;;5093680;28;20393;-76
2021/04/30 09:53:00;;;;;;;34.30;24.40;;;12.20;76.70;;;;;;5093191;28;20102;-77
2021/04/30 09:55:41;;;;;;;24.05;18.75;;;12.20;77.30;;;;;;5092917;28;20081;-77
2021/04/30 09:58:15;;;;;;;38.17;25.67;;;12.10;77.70;;;;;;5074578;28;20024;-77
2021/04/30 10:00:41;;;;;;;32.17;24.00;;;11.90;76.70;;;;;;5092953;28;20449;-76
2021/04/30 10:03:17;;;;;;;38.17;25.00;;;11.90;77.00;;;;;;5074500;28;20562;-76
2021/04/30 10:06:04;;;;;;;38.08;25.80;;;11.90;77.30;;;;;;5092864;28;20020;-77
2021/04/30 10:08:31;;;;;;;25.83;19.38;;;11.80;78.20;;;;;;5074637;28;20051;-76
2021/04/30 10:10:58;;;;;;;38.00;25.80;;;11.70;78.00;;;;;;5074062;28;20020;-76
2021/04/30 10:13:23;;;;;;;34.72;23.48;;;11.60;78.00;;;;;;5074331;28;20020;-78
2021/04/30 10:15:49;;;;;;;36.03;24.80;;;11.50;78.40;;;;;;5074527;28;20478;-77
2021/04/30 10:18:17;;;;;;;37.53;24.00;;;11.50;78.90;;;;;;5092351;28;20024;-77
2021/04/30 10:20:45;;;;;;;33.92;25.25;;;11.50;79.40;;;;;;5074459;28;20069;-77
2021/04/30 10:23:16;;;;;;;38.92;27.45;;;11.40;79.50;;;;;;5092565;28;20024;-77
2021/04/30 10:25:45;;;;;;;35.42;26.63;;;11.50;79.10;;;;;;5074321;28;20041;-77
2021/04/30 10:28:13;;;;;;;37.83;26.25;;;11.50;79.60;;;;;;5092236;28;20144;-78
2021/04/30 10:30:46;;;;;;;42.22;28.45;;;11.50;80.40;;;;;;5074234;28;20063;-78
2021/04/30 10:33:30;;;;;;;37.80;27.73;;;11.50;79.90;;;;;;5092528;28;20478;-76
2021/04/30 10:35:57;;;;;;;41.20;28.60;;;11.50;79.90;;;;;;5075521;28;20043;-77
2021/04/30 10:38:27;;;;;;;42.60;27.25;;;11.50;80.40;;;;;;5074563;28;20059;-78
2021/04/30 10:41:04;;;;;;;41.63;28.80;;;11.60;81.10;;;;;;5075671;28;20016;-77
2021/04/30 10:43:31;;;;;;;44.47;27.30;;;11.60;81.20;;;;;;5074405;28;20020;-81
2021/04/30 10:46:15;;;;;;;36.97;26.55;;;11.60;81.50;;;;;;5092511;28;20066;-80
2021/04/30 10:49:11;;;;;;;43.03;29.40;;;11.60;81.90;;;;;;5073841;28;20115;-80
2021/04/30 10:51:38;;;;;;;39.03;28.05;;;11.50;82.90;;;;;;5074243;28;20024;-79
2021/04/30 10:54:27;;;;;;;40.45;30.17;;;11.50;82.70;;;;;;5073964;28;20012;-80
2021/04/30 10:57:06;;;;;;;38.70;29.42;;;11.40;83.20;;;;;;5074409;28;20045;-78
2021/04/30 10:59:38;;;;;;;40.90;29.83;;;11.40;83.80;;;;;;5073691;28;20024;-80
2021/04/30 11:02:19;;;;;;;53.38;32.00;;;11.40;83.70;;;;;;5092031;28;20034;-80
2021/04/30 11:05:03;;;;;;;42.83;31.92;;;11.40;83.70;;;;;;5074038;28;20025;-80
2021/04/30 11:07:53;;;;;;;44.78;31.42;;;11.40;84.40;;;;;;5092131;28;20023;-80
2021/04/30 11:10:22;;;;;;;41.00;31.02;;;11.40;84.80;;;;;;5073840;28;20070;-80
2021/04/30 11:12:58;;;;;;;39.47;29.48;;;11.40;85.00;;;;;;5073849;28;20031;-79
2021/04/30 11:15:31;;;;;;;29.98;23.13;;;11.40;84.00;;;;;;5073576;28;20069;-79
2021/04/30 11:18:02;;;;;;;39.40;29.08;;;11.40;83.70;;;;;;5073667;28;20073;-79
2021/04/30 11:20:33;;;;;;;32.13;23.70;;;11.50;83.80;;;;;;5075868;28;20460;-78
2021/04/30 11:23:25;;;;;;;36.58;28.05;;;11.60;83.40;;;;;;5077326;28;20452;-79
2021/04/30 11:26:00;;;;;;;31.90;26.08;;;11.70;83.80;;;;;;5077500;28;20517;-78
2021/04/30 11:28:33;;;;;;;37.03;29.90;;;11.80;83.60;;;;;;5076714;28;20094;-79
2021/04/30 11:31:09;;;;;;;32.97;26.27;;;11.90;83.50;;;;;;5077227;28;20372;-78
2021/04/30 11:33:36;;;;;;;40.58;29.08;;;12.10;83.20;;;;;;5077113;28;20031;-77
2021/04/30 11:36:04;;;;;;;42.45;28.67;;;12.20;83.10;;;;;;5077083;28;20425;-77
2021/04/30 11:38:44;;;;;;;34.35;27.73;;;12.30;83.60;;;;;;5076623;28;20012;-78
2021/04/30 11:41:14;;;;;;;41.97;30.52;;;12.40;82.60;;;;;;5076961;28;20028;-78
2021/04/30 11:43:42;;;;;;;37.58;27.48;;;12.50;82.20;;;;;;5095691;28;20023;-78
2021/04/30 11:46:08;;;;;;;37.35;26.70;;;12.60;81.00;;;;;;5094941;28;20028;-77
2021/04/30 11:48:35;;;;;;;34.30;25.65;;;12.70;79.60;;;;;;5076884;28;20020;-77
2021/04/30 11:51:07;;;;;;;27.13;22.92;;;12.80;79.70;;;;;;5076926;28;20023;-77
2021/04/30 11:53:34;;;;;;;39.60;27.13;;;13.00;76.90;;;;;;5095478;28;20078;-76
2021/04/30 11:56:01;;;;;;;34.40;26.73;;;13.30;76.40;;;;;;5096468;28;20020;-78
2021/04/30 11:58:44;;;;;;;34.50;27.20;;;13.70;75.40;;;;;;5077688;28;20055;-77
2021/04/30 12:01:14;;;;;;;28.90;23.20;;;14.10;75.50;;;;;;5093996;28;20028;-77
2021/04/30 12:03:48;;;;;;;34.53;25.98;;;14.30;73.60;;;;;;5095573;28;20012;-77
2021/04/30 12:06:16;;;;;;;33.55;26.58;;;14.50;73.30;;;;;;5094215;28;20024;-77
2021/04/30 12:08:43;;;;;;;29.50;23.35;;;14.50;72.40;;;;;;5094299;28;20460;-77
2021/04/30 12:11:20;;;;;;;29.48;21.33;;;14.50;72.20;;;;;;5075817;28;20091;-78
2021/04/30 12:13:46;;;;;;;30.05;23.38;;;14.50;70.60;;;;;;5076178;28;20023;-78
2021/04/30 12:16:13;;;;;;;30.95;24.02;;;14.50;70.20;;;;;;5076887;28;20118;-80
2021/04/30 12:18:39;;;;;;;33.97;25.33;;;14.40;69.80;;;;;;5076447;28;20016;-79
2021/04/30 12:21:05;;;;;;;30.42;23.85;;;14.30;71.00;;;;;;5094455;28;20457;-79
2021/04/30 12:23:31;;;;;;;25.33;21.02;;;14.30;70.20;;;;;;5076292;28;20026;-80
2021/04/30 12:25:56;;;;;;;27.20;22.13;;;14.10;69.00;;;;;;5076498;28;20024;-80
2021/04/30 12:28:28;;;;;;;28.77;21.17;;;14.10;70.00;;;;;;5076199;28;20044;-80
2021/04/30 12:31:02;;;;;;;25.20;20.08;;;14.10;68.80;;;;;;5078077;28;20093;-79
2021/04/30 12:33:33;;;;;;;23.65;19.88;;;14.10;68.90;;;;;;5079002;28;20012;-79
2021/04/30 12:36:24;;;;;;;23.48;19.48;;;14.00;68.10;;;;;;5076996;28;20092;-78